This is the latest recevied weather packets stored in our database for station/object ED1ZAI-14. If no packets are shown the sender has not sent any weather packets the latest 10 day(s).
| Time | Temp. | Humidity | Pressure | Rain* | Wind** | Luminosity | Snow |
|---|---|---|---|---|---|---|---|
| 1787992459 | 11.67° C | 100% | 813.2 hPa | - | - | - | - |
| 1787990659 | 10.56° C | 100% | 813 hPa | - | - | - | - |
| 1787988859 | 10° C | 100% | 812.7 hPa | - | - | - | - |
| 1787987059 | 9.44° C | 100% | 812.5 hPa | - | - | - | - |
| 1787985259 | 8.33° C | 100% | 812.5 hPa | - | - | - | - |
| 1787983459 | 7.22° C | 100% | 812.3 hPa | - | - | - | - |
| 1787981659 | 6.67° C | 100% | 812.4 hPa | - | - | - | - |
| 1787979859 | 6.67° C | 100% | 812.4 hPa | - | - | - | - |
| 1787978058 | 6.67° C | 100% | 812.3 hPa | - | - | - | - |
| 1787976263 | 7.22° C | 100% | 812.3 hPa | - | - | - | - |
| 1787974460 | 7.22° C | 100% | 812.4 hPa | - | - | - | - |
| 1787972658 | 7.22° C | 100% | 812.6 hPa | - | - | - | - |
| 1787970862 | 7.22° C | 100% | 812.6 hPa | - | - | - | - |
| 1787969058 | 7.22° C | 100% | 812.6 hPa | - | - | - | - |
| 1787967258 | 7.22° C | 100% | 812.7 hPa | - | - | - | - |
| 1787965460 | 7.22° C | 100% | 812.7 hPa | - | - | - | - |
| 1787963662 | 7.22° C | 100% | 812.9 hPa | - | - | - | - |
| 1787961859 | 7.78° C | 100% | 813.1 hPa | - | - | - | - |
| 1787960059 | 7.78° C | 100% | 813.1 hPa | - | - | - | - |
| 1787958266 | 8.33° C | 100% | 813.3 hPa | - | - | - | - |
| 1787956459 | 7.78° C | 100% | 813.4 hPa | - | - | - | - |
| 1787954659 | 8.33° C | 100% | 813.4 hPa | - | - | - | - |
| 1787952859 | 8.33° C | 100% | 813.5 hPa | - | - | - | - |
| 1787951059 | 8.33° C | 100% | 813.6 hPa | - | - | - | - |
| 1787949258 | 8.33° C | 100% | 813.7 hPa | - | - | - | - |
* Rain since midnight (hover to see other rain measurements)
** Current wind speed in m/s (hover to see current wind gust speed)